x

Portlock Bank- 76nm Ene Of Kodiak, Ak (46080) Wave Buoy

1:50am - Mon 22nd Sep 2014 All times are AKDT. -8 hours from GMT.

  • Sig Wave height 7.5ft
  • Peak Period 7s
  • Average Period 5s
  • Wind
    20mph, 22mph gusts
  • Sea Temp 53°f
  • Air Temp 51°f
  • Sea Pressure 995.7mb
  • Portlock Bank- 76nm Ene Of Kodiak, Ak
  • Portlock Bank- 76nm Ene Of Kodiak, Ak

More Historic Weather Station data

Upgrade to MSW Pro to gain access to the past 30 days of data for over 8000 Wavebouys and Weather Stations around the globe.

Join Pro

Comparision Forecast

View Surf forecast
   
Mon 09/22 1:50am 7.5ft 7s 5s 20 22 mph 995.7mb 53f 51f
12:50am 6.5ft 7s 5s 20 25 mph 995mb 53f 51f
Sun 09/21 11:50pm 6.5ft 6s 5s 22 27 mph 994.6mb 53f 51f
10:50pm 5.5ft 6s 5s 20 25 mph 994.4mb 52f 52f
9:50pm 5ft 5s 5s 18 22 mph 994.6mb 53f 52f
8:50pm 5ft 9s 5s 20 25 mph 994.5mb 53f 52f
7:50pm 5ft 9s 5s 20 25 mph 994.6mb 53f 52f
6:50pm 4.5ft 9s 5s 16 20 mph 995.2mb 53f 52f
5:50pm 4.5ft 9s 5s 20 22 mph 995.5mb 53f 52f
4:50pm 4.5ft 9s 5s 18 22 mph 996.1mb 53f 52f
3:50pm 4.5ft 9s 7s 16 20 mph 996.5mb 53f 52f
2:50pm 4.5ft 10s 8s 11 16 mph 997.2mb 53f 52f
1:50pm 4ft 10s 7s 7 9 mph 998.1mb 53f 52f
12:50pm 4.5ft 11s 7s 7
mph
998.8mb 53f 52f
11:50am 4.5ft 9s 7s 7
mph
999.5mb 53f 52f
10:50am 4ft 9s 6s 4 7 mph 1000.2mb 53f 52f
9:50am 4ft 15s 6s 4
mph
1000.6mb 53f 52f
8:50am 4ft 14s 6s 4
mph
1001.2mb 53f 52f
7:50am 3.5ft 13s 6s 4
mph
1001.7mb 53f 52f
6:50am 3.5ft 10s 7s  -  2 mph 1002mb 53f 52f
5:50am 3.5ft 15s 7s  -  mph 1002.5mb 53f 51f
4:50am 3.5ft 15s 7s 2
mph
1002.7mb 53f 52f
3:50am 3.5ft 15s 7s 4 7 mph 1003mb 53f 52f
2:50am 3.5ft 15s 7s 4 9 mph 1003.3mb 53f 53f
1:50am 3.5ft 15s 6s 4 7 mph 1003.5mb 53f 53f
12:50am 3.5ft 15s 6s 9
mph
1003.7mb 53f 53f
Sat 09/20 11:50pm 3.5ft 14s 6s 7
mph
1003.9mb 53f 53f
10:50pm 4ft 8s 6s 7 9 mph 1003.8mb 53f 53f
9:50pm 4.5ft 9s 6s 7
mph
1003.6mb 53f 52f
8:50pm 4ft 8s 5s 4
mph
1003.4mb 53f 52f
7:50pm 4.5ft 9s 5s 9
mph
1003.3mb 53f 52f
6:50pm 4.5ft 14s 6s 9 11 mph 1003.2mb 54f 53f
5:50pm 4.5ft 8s 7s 9
mph
1003.1mb 54f 55f
4:50pm 4.5ft 7s 7s 7
mph
1003mb 54f 55f
3:50pm 4.5ft 8s 7s 4 7 mph 1002.8mb 54f 55f
2:50pm 4ft 16s 7s 4 7 mph 1002.5mb 53f 55f
1:50pm 4ft 15s 7s 4 7 mph 1002.3mb 53f 55f
12:50pm 3.5ft 7s 6s 7
mph
1002mb 53f 54f
11:50am 4ft 16s 7s 7 9 mph 1001.7mb 53f 54f
10:50am 4ft 9s 6s 7 9 mph 1001.4mb 53f 54f
9:50am 4.5ft 9s 6s 9 11 mph 1001.1mb 52f 53f
8:50am 5ft 8s 5s 4 7 mph 1000.7mb 52f 53f
7:50am 5ft 8s 5s 4 7 mph 1000.5mb 53f 53f
6:50am 6ft 7s 6s 4 7 mph 1000.3mb 53f 53f
5:50am 5.5ft 8s 6s 4 7 mph 1000.2mb 53f 53f
4:50am 5.5ft 8s 6s 7 9 mph 1000.1mb 53f 53f
3:50am 6ft 7s 6s 9
mph
999.9mb 53f 53f
2:50am 5.5ft 8s 6s 9 11 mph 999.9mb 53f 53f
1:50am 5.5ft 8s 6s 11 13 mph 999.8mb 53f 53f
12:50am 6ft 8s 6s 13 16 mph 999.7mb 53f 53f
Fri 09/19 11:50pm 5.5ft 10s 6s 13 16 mph 999.6mb 53f 53f
10:50pm 5.5ft 9s 6s 16 20 mph 999.2mb 53f 53f
9:50pm 6ft 10s 6s 13 18 mph 998.6mb 53f 53f
8:50pm 7ft 10s 6s 16 18 mph 998.2mb 53f 53f
7:50pm 7ft 11s 6s 18 22 mph 997.5mb 53f 53f
6:50pm 7.5ft 11s 6s 18 22 mph 996.6mb 53f 53f
5:50pm 8ft 8s 6s 16 20 mph 995.8mb 53f 53f
4:50pm 8ft 10s 6s 16 18 mph 995.3mb 53f 54f
3:50pm 8ft 9s 6s 13 16 mph 994.7mb 53f 54f
2:50pm 8.5ft 10s 6s 9 13 mph 994.2mb 53f 54f
1:50pm 8.5ft 9s 7s 13 16 mph 993.5mb 53f 54f
12:50pm 8ft 9s 6s 13 16 mph 992.7mb 53f 54f
11:50am 8ft 10s 6s 13 18 mph 991.9mb 53f 54f
10:50am 8.5ft 10s 6s 18 22 mph 991mb 53f 54f
9:50am 9ft 11s 7s 18 22 mph 990.1mb 53f 53f
8:50am 8ft 10s 6s 20 25 mph 989.4mb 53f 53f
7:50am 9.5ft 11s 6s 22 25 mph 988.4mb 53f 53f
6:50am 9ft 11s 6s 22 27 mph 987.6mb 53f 53f
5:50am 8.5ft 8s 6s 22 27 mph 986.8mb 53f 53f
4:50am 9ft 10s 6s 22 25 mph 986.2mb 53f 53f
3:50am 9ft 10s 6s 22 29 mph 985.3mb 53f 53f
2:50am 9ft 10s 6s 25 29 mph 984.6mb 53f 53f
1:50am 9ft 10s 6s 25 29 mph 983.8mb 53f 53f
12:50am 10.5ft 10s 6s 22 29 mph 983.2mb 53f 53f
Thu 09/18 11:50pm 12ft 11s 7s 25 31 mph 982.3mb 53f 53f
10:50pm 11ft 10s 6s 27 34 mph 981.6mb 53f 53f
9:50pm 12.5ft 11s 6s 27 34 mph 980.7mb 53f 53f
8:50pm 13ft 11s 7s 27 34 mph 980.1mb 53f 52f
7:50pm 12ft 11s 7s 29 36 mph 979.3mb 53f 52f
6:50pm 11ft 7s 6s 31 38 mph 978.6mb 53f 52f
5:50pm 10ft 10s 6s 31 36 mph 977.9mb 54f 51f
4:50pm 8ft 9s 5s 27 34 mph 977.9mb 54f 52f
3:50pm 8ft 9s 5s 25 29 mph 977.4mb 54f 53f
2:50pm 8ft 9s 5s 25 29 mph 977.2mb 54f 53f
1:50pm 7ft 8s 5s 25 31 mph 977.1mb 54f 53f
12:50pm 7ft 8s 5s 22 29 mph 977.2mb 53f 53f
11:50am 7ft 8s 5s 25 27 mph 977.4mb 53f 53f